createdAt,value
2023-11-08T04:22:05.224Z,8.95
2023-11-08T04:25:08.375Z,8.96
2023-11-08T04:28:10.543Z,8.49
2023-11-08T04:31:13.124Z,8.31
2023-11-08T04:34:15.425Z,8.37
2023-11-08T04:37:20.646Z,8.29
2023-11-08T04:40:23.544Z,8.49
2023-11-08T04:43:26.089Z,8.44
2023-11-08T04:46:28.312Z,8.50
2023-11-08T04:49:30.794Z,8.45
2023-11-08T04:52:33.643Z,8.50
2023-11-08T04:55:36.213Z,8.42
2023-11-08T04:58:38.390Z,8.57
2023-11-08T05:01:42.892Z,8.57
2023-11-08T05:04:48.721Z,8.48
2023-11-08T05:07:51.385Z,8.46
2023-11-08T05:10:53.549Z,8.50
2023-11-08T05:13:56.048Z,8.47
2023-11-08T05:16:58.237Z,8.54
2023-11-08T05:20:00.657Z,8.45
2023-11-08T05:23:02.855Z,8.43
2023-11-08T05:26:07.434Z,8.42
2023-11-08T05:29:09.961Z,8.41
2023-11-08T05:32:12.472Z,8.42
2023-11-08T05:35:15.237Z,8.45
2023-11-08T05:38:17.777Z,8.45
2023-11-08T05:41:20.548Z,8.47
2023-11-08T05:44:23.255Z,8.50
2023-11-08T05:47:25.630Z,8.58
2023-11-08T05:50:28.071Z,8.62
2023-11-08T05:53:30.938Z,8.60
2023-11-08T05:56:33.673Z,8.62
2023-11-08T05:59:36.732Z,8.67
2023-11-08T06:02:39.224Z,8.79
2023-11-08T06:05:41.852Z,8.84
2023-11-08T06:08:49.740Z,8.82
2023-11-08T06:11:54.759Z,8.84
2023-11-08T06:14:57.231Z,8.76
2023-11-08T06:18:01.723Z,8.78
2023-11-08T06:21:07.399Z,9.01
2023-11-08T06:24:19.175Z,9.03
2023-11-08T06:27:21.833Z,8.97
2023-11-08T06:30:24.734Z,9.00
2023-11-08T06:33:26.987Z,8.91
2023-11-08T06:36:30.002Z,9.00
2023-11-08T06:39:32.577Z,8.99
2023-11-08T06:42:35.273Z,9.02
2023-11-08T06:45:37.825Z,9.00
2023-11-08T06:48:40.377Z,9.05
2023-11-08T06:51:42.755Z,9.00
2023-11-08T06:54:45.494Z,9.01
2023-11-08T06:57:48.469Z,9.06
2023-11-08T07:00:55.607Z,9.04
2023-11-08T07:04:03.332Z,9.11
2023-11-08T07:07:06.331Z,9.27
2023-11-08T07:10:12.197Z,9.21
2023-11-08T07:13:14.670Z,9.12
2023-11-08T07:16:16.877Z,9.11
2023-11-08T07:19:20.263Z,9.20
2023-11-08T07:22:26.214Z,9.16
2023-11-08T07:25:28.683Z,9.22
2023-11-08T07:28:31.068Z,9.33
2023-11-08T07:31:34.186Z,9.26
2023-11-08T07:34:36.460Z,9.20
2023-11-08T07:37:42.486Z,9.30
2023-11-08T07:40:45.441Z,9.51
2023-11-08T07:43:48.228Z,9.56
2023-11-08T07:46:50.563Z,9.64
2023-11-08T07:49:53.139Z,9.67
2023-11-08T07:52:55.526Z,9.69
2023-11-08T07:55:59.809Z,9.65
2023-11-08T07:59:02.397Z,9.67
2023-11-08T08:02:05.164Z,9.75
2023-11-08T08:05:10.137Z,9.73
2023-11-08T08:08:15.660Z,9.84
2023-11-08T08:11:18.563Z,10.02
2023-11-08T08:14:20.886Z,10.04
2023-11-08T08:17:23.374Z,9.99
2023-11-08T08:20:26.360Z,9.91
2023-11-08T08:23:29.770Z,9.98
2023-11-08T08:26:32.352Z,9.89
2023-11-08T08:29:35.056Z,9.95
2023-11-08T08:32:37.538Z,10.08
2023-11-08T08:35:40.204Z,10.17
2023-11-08T08:38:44.253Z,10.10
2023-11-08T08:41:47.114Z,10.09
2023-11-08T08:44:50.569Z,10.10
2023-11-08T08:47:55.024Z,10.18
2023-11-08T08:50:57.673Z,10.17
2023-11-08T08:54:00.432Z,10.23
2023-11-08T08:57:03.407Z,10.25
2023-11-08T09:00:08.889Z,10.25
2023-11-08T09:03:11.357Z,10.31
2023-11-08T09:06:14.177Z,10.36
2023-11-08T09:09:16.833Z,10.36
2023-11-08T09:12:19.271Z,10.60
2023-11-08T09:15:21.488Z,10.68
2023-11-08T09:18:26.499Z,10.85
2023-11-08T09:21:30.142Z,10.73
2023-11-08T09:24:33.717Z,10.73
2023-11-08T09:27:39.087Z,10.81
2023-11-08T09:30:41.790Z,10.70
2023-11-08T09:33:44.127Z,10.89
2023-11-08T09:36:48.199Z,10.98
2023-11-08T09:39:51.447Z,11.00
2023-11-08T09:42:55.728Z,11.17
2023-11-08T09:45:58.918Z,11.18
2023-11-08T09:49:01.958Z,11.36
2023-11-08T09:52:04.437Z,11.44
2023-11-08T09:55:07.515Z,11.15
2023-11-08T09:58:13.895Z,11.27
2023-11-08T10:01:17.386Z,11.68
2023-11-08T10:04:26.860Z,11.98
2023-11-08T10:07:34.530Z,11.77
2023-11-08T10:10:38.345Z,11.59
2023-11-08T10:13:50.131Z,11.36
2023-11-08T10:16:55.530Z,11.63
2023-11-08T10:20:01.240Z,11.48
2023-11-08T10:23:07.540Z,11.42
2023-11-08T10:26:14.878Z,11.63
2023-11-08T10:29:18.188Z,11.66
2023-11-08T10:32:26.375Z,11.31
2023-11-08T10:35:36.904Z,11.36
2023-11-08T10:38:40.435Z,11.46
2023-11-08T10:41:45.461Z,11.77
2023-11-08T10:44:47.713Z,12.07
2023-11-08T10:47:50.792Z,11.95
2023-11-08T10:50:54.250Z,12.41
2023-11-08T10:53:57.416Z,12.80
2023-11-08T10:57:04.078Z,13.94
2023-11-08T11:00:10.605Z,15.89
2023-11-08T11:03:15.449Z,15.96
2023-11-08T11:06:19.540Z,17.22
2023-11-08T11:09:22.732Z,18.84
2023-11-08T11:12:57.553Z,21.69
2023-11-08T11:16:30.789Z,21.70
2023-11-08T11:19:42.761Z,18.25
2023-11-08T11:22:45.169Z,21.46
2023-11-08T11:25:51.632Z,22.96
2023-11-08T11:28:56.744Z,21.33
2023-11-08T11:32:04.849Z,24.58
2023-11-08T11:35:07.342Z,27.43
2023-11-08T11:38:18.329Z,27.39
2023-11-08T11:41:24.520Z,24.55
2023-11-08T11:44:45.045Z,25.39
2023-11-08T11:47:52.051Z,23.06
2023-11-08T11:50:55.595Z,19.94
2023-11-08T11:53:58.115Z,20.05
2023-11-08T11:57:00.705Z,16.93
2023-11-08T12:00:15.785Z,14.31
2023-11-08T12:03:18.419Z,13.38
2023-11-08T12:06:22.305Z,12.77
2023-11-08T12:09:25.212Z,12.83
2023-11-08T12:12:28.628Z,12.47
2023-11-08T12:15:33.395Z,12.24
2023-11-08T12:18:35.973Z,12.01
2023-11-08T12:21:38.585Z,12.03
2023-11-08T12:24:40.881Z,12.28
2023-11-08T12:27:44.160Z,12.19
2023-11-08T12:31:04.842Z,12.13
2023-11-08T12:34:10.699Z,12.11
2023-11-08T12:37:13.706Z,12.13
2023-11-08T12:40:25.637Z,12.17
2023-11-08T12:43:58.003Z,12.09
2023-11-08T12:46:54.957Z,12.20
2023-11-08T12:50:11.879Z,12.02
2023-11-08T12:53:14.386Z,12.06
2023-11-08T12:56:16.677Z,12.24
2023-11-08T12:59:21.085Z,12.18
2023-11-08T13:02:23.292Z,12.21
2023-11-08T13:05:26.208Z,12.17
2023-11-08T13:08:32.457Z,12.22
2023-11-08T13:11:35.094Z,12.12
2023-11-08T13:14:37.367Z,12.24
2023-11-08T13:17:39.948Z,12.13
2023-11-08T13:20:46.907Z,11.97
2023-11-08T13:24:02.636Z,11.67
2023-11-08T13:27:15.059Z,11.68
2023-11-08T13:30:18.771Z,11.62
2023-11-08T13:33:21.547Z,11.61
2023-11-08T13:36:28.867Z,11.61
2023-11-08T13:39:31.861Z,11.64
2023-11-08T13:42:35.129Z,11.53
2023-11-08T13:45:37.604Z,11.56
2023-11-08T13:48:40.212Z,11.50
2023-11-08T13:51:42.555Z,11.81
2023-11-08T13:54:45.156Z,11.65
2023-11-08T13:57:47.362Z,11.38
2023-11-08T14:00:53.247Z,11.29
2023-11-08T14:03:56.064Z,11.18
2023-11-08T14:06:58.465Z,11.17
2023-11-08T14:10:02.190Z,11.00
2023-11-08T14:13:04.858Z,10.80
2023-11-08T14:16:08.858Z,10.81
2023-11-08T14:19:11.504Z,10.76
2023-11-08T14:22:14.218Z,10.59
2023-11-08T14:25:16.475Z,10.55
2023-11-08T14:28:19.888Z,10.43
2023-11-08T14:31:23.844Z,10.38
2023-11-08T14:34:27.430Z,10.39
2023-11-08T14:37:30.879Z,10.34
2023-11-08T14:40:33.429Z,10.20
2023-11-08T14:43:35.693Z,10.11
2023-11-08T14:46:38.781Z,9.95
2023-11-08T14:49:41.196Z,9.79
2023-11-08T14:52:43.733Z,9.76
2023-11-08T14:55:47.240Z,10.08
2023-11-08T14:58:50.714Z,10.21
2023-11-08T15:01:54.082Z,10.11
2023-11-08T15:04:56.614Z,10.05
2023-11-08T15:09:47.911Z,10.04
2023-11-08T15:11:21.733Z,9.91
2023-11-08T15:14:24.686Z,9.80
2023-11-08T15:17:27.230Z,9.64
2023-11-08T15:20:29.526Z,9.26
2023-11-08T15:23:32.164Z,9.25
2023-11-08T15:26:34.679Z,9.17
2023-11-08T15:29:37.340Z,9.08
2023-11-08T15:32:42.246Z,9.09
2023-11-08T15:35:44.763Z,8.93
2023-11-08T15:38:53.942Z,8.78
2023-11-08T15:41:56.825Z,8.66
2023-11-08T15:45:00.136Z,8.32
2023-11-08T15:48:03.097Z,8.51
2023-11-08T15:51:05.433Z,8.62
2023-11-08T15:54:07.983Z,8.60
2023-11-08T15:57:11.604Z,8.72
2023-11-08T16:00:14.664Z,10.92
2023-11-08T16:03:17.196Z,13.34
2023-11-08T16:06:20.289Z,13.30
2023-11-08T16:09:22.891Z,13.46
2023-11-08T16:12:25.944Z,12.21
2023-11-08T16:15:28.385Z,10.96
2023-11-08T16:18:30.921Z,10.24
2023-11-08T16:21:34.436Z,9.69
2023-11-08T16:24:38.596Z,9.36
